Time;durP1;ratioP1;P1;durP2;ratioP2;P2;SDS_P1;SDS_P2;PMS_P1;PMS_P2;Temp;Humidity;BMP_temperature;BMP_pressure;BME280_temperature;BME280_humidity;BME280_pressure;Samples;Min_cycle;Max_cycle;Signal;HPM_P1;HPM_P2
2021/10/25 00:02:14;;;;;;;9.68;5.65;;;11.10;83.50;;;;;;5052076;28;20057;-83
2021/10/25 00:04:40;;;;;;;10.90;5.35;;;11.10;83.40;;;;;;5047773;28;20115;-83
2021/10/25 00:07:05;;;;;;;9.85;5.07;;;11.10;83.30;;;;;;5053953;28;20035;-83
2021/10/25 00:09:31;;;;;;;12.85;5.78;;;11.10;83.30;;;;;;5052169;28;20457;-83
2021/10/25 00:11:57;;;;;;;11.90;5.72;;;11.10;83.30;;;;;;5052549;28;20033;-84
2021/10/25 00:14:23;;;;;;;13.40;4.78;;;11.00;83.30;;;;;;5051802;28;20036;-83
2021/10/25 00:16:49;;;;;;;7.90;4.78;;;11.00;83.40;;;;;;5051415;28;20394;-83
2021/10/25 00:19:15;;;;;;;11.90;6.10;;;11.00;83.30;;;;;;5048256;28;20037;-83
2021/10/25 00:21:41;;;;;;;9.05;5.68;;;11.00;83.30;;;;;;5051450;28;20079;-83
2021/10/25 00:24:07;;;;;;;9.40;5.40;;;11.00;83.10;;;;;;5052022;28;20029;-84
2021/10/25 00:26:33;;;;;;;9.02;5.25;;;11.00;83.00;;;;;;5051259;28;20090;-83
2021/10/25 00:28:59;;;;;;;11.10;5.93;;;10.90;82.90;;;;;;5058105;28;20033;-82
2021/10/25 00:31:25;;;;;;;10.48;6.05;;;11.00;82.90;;;;;;5051870;28;20397;-82
2021/10/25 00:33:52;;;;;;;9.18;5.25;;;10.90;82.80;;;;;;5051883;28;20036;-82
2021/10/25 00:36:17;;;;;;;9.10;5.05;;;10.90;82.80;;;;;;5050435;28;20079;-82
2021/10/25 00:38:43;;;;;;;10.52;5.53;;;10.90;83.50;;;;;;5051970;28;20447;-82
2021/10/25 00:41:10;;;;;;;23.52;6.78;;;10.90;82.90;;;;;;5058080;28;20032;-82
2021/10/25 00:43:36;;;;;;;13.13;6.93;;;10.90;83.00;;;;;;5051057;28;20037;-82
2021/10/25 00:46:02;;;;;;;12.55;6.55;;;10.80;83.00;;;;;;5051332;28;20358;-82
2021/10/25 00:48:28;;;;;;;14.60;6.07;;;10.80;83.10;;;;;;5041878;28;20144;-82
2021/10/25 00:50:57;;;;;;;13.65;6.15;;;10.80;83.20;;;;;;5054726;28;20472;-83
2021/10/25 00:53:23;;;;;;;14.73;7.00;;;10.80;83.20;;;;;;5044142;28;20051;-83
2021/10/25 00:55:50;;;;;;;10.13;6.18;;;10.80;83.10;;;;;;5039192;28;20078;-82
2021/10/25 00:58:17;;;;;;;11.30;6.97;;;10.80;83.10;;;;;;5054856;28;20067;-83
2021/10/25 01:00:43;;;;;;;8.85;5.43;;;10.80;83.20;;;;;;5064780;28;20070;-82
2021/10/25 01:03:08;;;;;;;12.80;6.25;;;10.70;83.20;;;;;;5035079;28;20025;-82
2021/10/25 01:05:34;;;;;;;15.68;5.78;;;10.70;83.30;;;;;;5040945;28;20029;-84
2021/10/25 01:08:03;;;;;;;8.25;4.53;;;10.70;83.40;;;;;;5055086;28;20040;-82
2021/10/25 01:10:29;;;;;;;12.05;5.25;;;10.70;83.50;;;;;;5054563;28;20127;-83
2021/10/25 01:12:57;;;;;;;16.23;5.80;;;10.70;83.60;;;;;;5037865;28;20037;-83
2021/10/25 01:15:27;;;;;;;15.07;6.03;;;10.60;83.60;;;;;;5036433;28;20032;-83
2021/10/25 01:17:54;;;;;;;7.47;4.20;;;10.60;83.80;;;;;;5046244;28;20035;-83
2021/10/25 01:20:26;;;;;;;9.82;5.75;;;10.50;83.80;;;;;;5053578;28;20029;-83
2021/10/25 01:22:54;;;;;;;16.70;7.22;;;10.60;84.00;;;;;;5038528;28;20021;-84
2021/10/25 01:25:22;;;;;;;12.20;6.78;;;10.50;83.90;;;;;;5037373;28;20380;-83
2021/10/25 01:27:49;;;;;;;12.82;5.72;;;10.50;83.80;;;;;;5031578;28;20028;-83
2021/10/25 01:30:16;;;;;;;17.02;6.28;;;10.50;83.70;;;;;;5036531;28;20033;-83
2021/10/25 01:32:43;;;;;;;16.35;7.15;;;10.50;83.70;;;;;;5035586;28;20049;-84
2021/10/25 01:35:10;;;;;;;11.20;6.88;;;10.50;83.70;;;;;;5037651;28;20029;-83
2021/10/25 01:37:36;;;;;;;10.95;6.20;;;10.50;83.80;;;;;;5036574;28;20033;-84
2021/10/25 01:40:04;;;;;;;12.07;6.32;;;10.50;83.70;;;;;;5055305;28;20397;-83
2021/10/25 01:42:30;;;;;;;10.48;6.43;;;10.50;83.70;;;;;;5035053;28;20025;-83
2021/10/25 01:44:56;;;;;;;13.38;7.40;;;10.40;83.60;;;;;;5038543;28;20025;-83
2021/10/25 01:47:21;;;;;;;14.30;7.35;;;10.50;83.60;;;;;;5036170;28;20396;-84
2021/10/25 01:49:48;;;;;;;11.57;4.00;;;10.50;83.50;;;;;;5036981;28;20032;-84
2021/10/25 01:52:15;;;;;;;11.32;5.00;;;10.40;83.50;;;;;;5055213;28;20044;-83
2021/10/25 01:54:47;;;;;;;10.38;6.05;;;10.40;83.50;;;;;;5035829;28;20377;-83
2021/10/25 01:57:12;;;;;;;12.45;6.93;;;10.40;83.80;;;;;;5037697;28;20036;-84
2021/10/25 01:59:39;;;;;;;18.38;6.18;;;10.30;83.90;;;;;;5041346;28;20086;-82
2021/10/25 02:02:06;;;;;;;12.88;6.40;;;10.30;84.10;;;;;;5036743;28;20119;-84
2021/10/25 02:04:31;;;;;;;8.32;4.75;;;10.30;84.10;;;;;;5035462;28;20099;-83
2021/10/25 02:06:58;;;;;;;14.32;7.43;;;10.20;84.30;;;;;;5017382;28;20042;-83
2021/10/25 02:09:25;;;;;;;13.70;6.85;;;10.30;84.30;;;;;;5032730;28;20021;-84
2021/10/25 02:11:51;;;;;;;11.55;6.03;;;10.20;84.30;;;;;;5035944;28;20047;-85
2021/10/25 02:14:17;;;;;;;10.52;6.38;;;10.20;84.30;;;;;;5045266;28;20040;-82
2021/10/25 02:16:44;;;;;;;9.15;4.90;;;10.20;84.30;;;;;;5036268;28;20032;-83
2021/10/25 02:19:10;;;;;;;14.02;5.85;;;10.20;84.40;;;;;;5054379;28;20025;-83
2021/10/25 02:21:42;;;;;;;8.95;4.22;;;10.20;84.50;;;;;;5034508;28;20033;-83
2021/10/25 02:24:08;;;;;;;16.23;5.53;;;10.10;84.50;;;;;;5033672;28;20006;-83
2021/10/25 02:26:35;;;;;;;8.70;5.68;;;10.10;84.60;;;;;;5025477;28;20112;-83
2021/10/25 02:29:01;;;;;;;8.77;4.05;;;10.10;84.70;;;;;;5033385;28;20156;-83
2021/10/25 02:31:27;;;;;;;10.38;6.00;;;10.10;84.70;;;;;;5032336;28;20175;-84
2021/10/25 02:33:53;;;;;;;8.50;4.78;;;10.10;84.80;;;;;;5033280;28;20124;-84
2021/10/25 02:36:19;;;;;;;9.00;5.70;;;10.10;84.80;;;;;;5030945;28;20029;-83
2021/10/25 02:38:44;;;;;;;10.45;5.18;;;10.00;84.80;;;;;;5033081;28;20040;-84
2021/10/25 02:41:11;;;;;;;11.63;6.05;;;10.10;84.90;;;;;;5032469;28;20492;-84
2021/10/25 02:43:38;;;;;;;11.15;5.20;;;10.00;84.90;;;;;;5029295;28;20041;-83
2021/10/25 02:46:05;;;;;;;9.98;6.88;;;10.00;85.00;;;;;;5031624;28;20082;-83
2021/10/25 02:48:31;;;;;;;12.27;5.78;;;10.00;85.10;;;;;;5045473;28;20025;-83
2021/10/25 02:51:03;;;;;;;16.25;7.55;;;9.90;85.00;;;;;;5033675;28;20331;-84
2021/10/25 02:53:29;;;;;;;15.77;6.03;;;10.00;85.10;;;;;;5035295;28;20045;-84
2021/10/25 02:55:55;;;;;;;12.32;6.32;;;10.00;84.90;;;;;;5038777;28;20492;-83
2021/10/25 02:58:21;;;;;;;10.55;6.53;;;10.00;84.90;;;;;;5035177;28;20025;-84
2021/10/25 03:00:53;;;;;;;13.73;7.53;;;10.00;84.70;;;;;;5036894;28;20112;-83
2021/10/25 03:03:19;;;;;;;8.77;4.88;;;10.00;84.80;;;;;;5037678;28;20072;-84
2021/10/25 03:05:46;;;;;;;11.68;6.63;;;10.00;84.80;;;;;;5035066;28;20129;-84
2021/10/25 03:08:11;;;;;;;12.52;6.78;;;10.00;84.90;;;;;;5037541;28;20041;-84
2021/10/25 03:10:39;;;;;;;15.52;7.20;;;9.90;84.90;;;;;;5034087;28;20021;-83
2021/10/25 03:13:06;;;;;;;11.45;6.75;;;10.00;85.00;;;;;;5034657;28;20044;-85
2021/10/25 03:15:33;;;;;;;13.27;6.45;;;9.90;85.00;;;;;;5036811;28;20037;-83
2021/10/25 03:18:06;;;;;;;10.55;5.85;;;10.00;85.00;;;;;;5035405;28;20029;-84
2021/10/25 03:20:34;;;;;;;9.15;4.72;;;9.90;85.00;;;;;;5035555;28;20038;-84
2021/10/25 03:22:59;;;;;;;13.57;6.45;;;9.90;84.90;;;;;;5034762;28;20174;-85
2021/10/25 03:25:26;;;;;;;13.88;6.18;;;9.90;85.00;;;;;;5030672;28;20026;-84
2021/10/25 03:27:52;;;;;;;11.85;5.82;;;9.90;85.00;;;;;;5033633;28;20036;-82
2021/10/25 03:30:18;;;;;;;1.55;1.27;;;9.90;85.00;;;;;;5032712;28;20029;-85
2021/10/25 03:32:48;;;;;;;14.52;6.88;;;9.90;85.00;;;;;;5030065;28;20044;-75
2021/10/25 03:35:34;;;;;;;13.10;6.88;;;9.90;85.10;;;;;;5030838;28;20370;-82
2021/10/25 03:38:07;;;;;;;8.30;4.35;;;9.90;85.20;;;;;;5030373;28;20124;-80
2021/10/25 03:40:34;;;;;;;12.43;6.95;;;9.90;85.20;;;;;;5033052;28;20552;-81
2021/10/25 03:43:00;;;;;;;11.73;6.60;;;9.80;85.20;;;;;;5033114;28;20440;-80
2021/10/25 03:50:30;;;;;;;13.27;6.47;;;9.90;85.00;;;;;;5031454;28;20401;-81
2021/10/25 04:01:57;;;;;;;10.60;6.32;;;9.90;84.80;;;;;;5031309;28;20056;-85
2021/10/25 04:27:11;;;;;;;15.75;7.07;;;9.80;84.90;;;;;;5032595;28;20037;-84
2021/10/25 04:29:37;;;;;;;;;;;9.70;85.00;;;;;;5028252;28;20049;-82
2021/10/25 04:32:06;;;;;;;10.65;6.47;;;9.70;84.90;;;;;;5054507;28;19929;-82
2021/10/25 04:34:35;;;;;;;16.42;6.47;;;9.80;84.90;;;;;;5033907;28;20455;-84
2021/10/25 04:37:24;;;;;;;10.32;6.10;;;9.80;85.10;;;;;;5011858;28;20083;-83
2021/10/25 04:40:00;;;;;;;12.10;4.57;;;9.80;85.10;;;;;;5037033;28;20041;-82
2021/10/25 04:42:26;;;;;;;16.75;8.15;;;9.90;85.10;;;;;;5033257;28;20387;-83
2021/10/25 04:44:55;;;;;;;7.28;4.60;;;9.80;85.10;;;;;;5035003;28;20040;-81
2021/10/25 04:47:20;;;;;;;14.60;7.93;;;9.90;84.80;;;;;;5043954;28;20029;-81
2021/10/25 04:49:47;;;;;;;16.08;7.18;;;9.90;85.00;;;;;;5042596;28;20031;-81
2021/10/25 04:52:38;;;;;;;14.63;7.68;;;9.90;85.00;;;;;;5059040;28;20066;-82
2021/10/25 04:55:05;;;;;;;13.93;7.57;;;10.00;85.10;;;;;;5042917;28;20537;-84
2021/10/25 04:57:31;;;;;;;12.65;6.82;;;10.00;85.00;;;;;;5043522;28;20022;-86
2021/10/25 04:59:58;;;;;;;12.40;6.70;;;10.10;85.10;;;;;;5044988;28;20031;-83
2021/10/25 05:02:26;;;;;;;15.00;7.15;;;10.10;85.20;;;;;;5039136;28;20031;-69
2021/10/25 05:04:52;;;;;;;12.57;7.25;;;10.10;85.20;;;;;;5042145;28;20091;-79
2021/10/25 05:07:19;;;;;;;15.07;8.10;;;10.10;85.80;;;;;;5067762;28;20028;-77
2021/10/25 05:09:44;;;;;;;13.35;7.55;;;10.10;85.30;;;;;;5046440;28;20033;-83
2021/10/25 05:12:13;;;;;;;12.60;6.57;;;10.20;85.40;;;;;;5034622;28;20087;-84
2021/10/25 05:14:42;;;;;;;11.25;5.22;;;10.20;85.20;;;;;;5033259;28;20040;-82
2021/10/25 05:17:08;;;;;;;13.02;6.25;;;10.20;84.90;;;;;;5033785;28;20465;-82
2021/10/25 05:19:36;;;;;;;15.65;7.72;;;10.20;84.70;;;;;;5043729;28;20032;-86
2021/10/25 05:22:10;;;;;;;13.55;7.25;;;10.20;84.70;;;;;;5046177;28;20040;-74
2021/10/25 05:24:38;;;;;;;11.65;6.55;;;10.10;84.80;;;;;;5048073;28;20377;-74
2021/10/25 05:27:06;;;;;;;14.68;8.07;;;10.10;84.80;;;;;;5061212;28;20029;-82
2021/10/25 05:29:32;;;;;;;11.88;6.38;;;10.20;84.90;;;;;;5062084;28;20379;-81
2021/10/25 05:31:58;;;;;;;14.55;7.63;;;10.20;85.00;;;;;;5049487;28;20132;-83
2021/10/25 05:34:24;;;;;;;11.45;7.00;;;10.20;84.90;;;;;;5034405;28;20029;-86
2021/10/25 05:36:50;;;;;;;11.43;7.20;;;10.20;85.00;;;;;;5051342;28;20112;-82
2021/10/25 05:39:16;;;;;;;4.60;2.72;;;10.20;85.10;;;;;;5050290;28;20446;-75
2021/10/25 05:41:44;;;;;;;12.05;5.40;;;10.20;84.70;;;;;;5073095;28;20020;-75
2021/10/25 05:44:10;;;;;;;13.73;5.68;;;10.20;84.60;;;;;;5049681;28;20032;-75
2021/10/25 05:47:48;;;;;;;7.50;3.95;;;10.20;84.20;;;;;;5011688;27;1233970;-78
2021/10/25 05:50:14;;;;;;;12.35;6.57;;;10.20;84.60;;;;;;5031594;28;20029;-79
2021/10/25 05:52:40;;;;;;;13.82;7.25;;;10.10;84.90;;;;;;5010747;28;20024;-79
2021/10/25 05:55:08;;;;;;;12.48;7.07;;;10.20;85.10;;;;;;5024397;28;20033;-79
2021/10/25 05:57:33;;;;;;;13.43;6.78;;;10.20;85.20;;;;;;5014594;28;20513;-79
2021/10/25 05:59:59;;;;;;;12.85;7.28;;;10.20;85.20;;;;;;5018327;28;20014;-79
2021/10/25 06:02:29;;;;;;;14.63;7.03;;;10.20;85.40;;;;;;5012271;28;20157;-78
2021/10/25 06:05:07;;;;;;;12.13;6.60;;;10.20;85.50;;;;;;5009542;28;20032;-78
2021/10/25 06:07:40;;;;;;;13.23;7.22;;;10.20;85.40;;;;;;5026484;28;20038;-78
2021/10/25 06:10:06;;;;;;;19.52;7.82;;;10.30;85.60;;;;;;5023884;28;20396;-78
2021/10/25 06:12:44;;;;;;;16.48;4.85;;;10.30;85.60;;;;;;5009833;28;20029;-78
2021/10/25 06:15:18;;;;;;;18.50;7.10;;;10.30;85.30;;;;;;5010833;28;20021;-79
2021/10/25 06:17:54;;;;;;;10.50;4.10;;;10.30;85.30;;;;;;5032676;28;20056;-77
2021/10/25 06:20:29;;;;;;;6.85;4.00;;;10.30;85.20;;;;;;5035890;28;20021;-78
2021/10/25 06:22:56;;;;;;;12.93;7.00;;;10.20;85.10;;;;;;5028308;28;20108;-79
2021/10/25 06:25:25;;;;;;;12.73;5.53;;;10.20;85.40;;;;;;5014902;28;20021;-80
2021/10/25 06:28:11;;;;;;;7.18;2.95;;;10.20;85.50;;;;;;5041345;28;20110;-79
2021/10/25 06:30:46;;;;;;;13.02;7.10;;;10.10;85.40;;;;;;5026217;28;20025;-81
2021/10/25 06:33:15;;;;;;;11.68;6.35;;;10.10;85.80;;;;;;5018843;28;20482;-80
2021/10/25 06:36:07;;;;;;;11.63;6.53;;;10.10;86.20;;;;;;5001313;28;20090;-74
2021/10/25 06:41:19;;;;;;;14.73;7.22;;;10.10;86.20;;;;;;5023052;28;20052;-80
2021/10/25 06:43:45;;;;;;;11.52;5.65;;;10.10;86.50;;;;;;5025222;28;20044;-80
2021/10/25 06:46:14;;;;;;;14.85;6.72;;;10.10;86.60;;;;;;5020760;28;20104;-79
2021/10/25 06:48:39;;;;;;;9.30;4.80;;;10.10;86.70;;;;;;5007983;28;20113;-80
2021/10/25 06:51:06;;;;;;;13.68;7.50;;;10.10;86.70;;;;;;5009932;28;20026;-80
2021/10/25 06:53:33;;;;;;;11.15;5.80;;;10.10;86.90;;;;;;5017738;28;20120;-80
2021/10/25 06:56:11;;;;;;;4.22;2.40;;;10.10;86.90;;;;;;5021004;28;20509;-80
2021/10/25 06:58:38;;;;;;;13.05;6.05;;;10.10;86.70;;;;;;5006016;28;20509;-80
2021/10/25 07:01:05;;;;;;;10.30;5.78;;;10.20;86.90;;;;;;5007707;28;20025;-80
2021/10/25 07:03:32;;;;;;;14.07;6.28;;;10.20;87.10;;;;;;4993689;28;20030;-80
2021/10/25 07:06:01;;;;;;;12.63;4.55;;;10.20;87.10;;;;;;4996233;28;20555;-80
2021/10/25 07:08:31;;;;;;;4.07;2.15;;;10.20;87.10;;;;;;5001326;28;20029;-80
2021/10/25 07:10:58;;;;;;;12.88;4.10;;;10.20;87.00;;;;;;4999480;28;20033;-80
2021/10/25 07:13:25;;;;;;;13.45;7.38;;;10.20;87.00;;;;;;5002950;28;20509;-80
2021/10/25 07:16:05;;;;;;;13.88;7.05;;;10.20;87.40;;;;;;4998755;28;20061;-80
2021/10/25 07:18:52;;;;;;;8.32;4.32;;;10.20;87.50;;;;;;4995658;28;20053;-80
2021/10/25 08:11:04;;;;;;;12.25;7.82;;;10.60;88.80;;;;;;4977464;28;20039;-80
2021/10/25 08:13:37;;;;;;;12.95;6.85;;;10.70;88.90;;;;;;4992066;28;20058;-80
2021/10/25 08:19:11;;;;;;;12.10;6.25;;;10.80;88.50;;;;;;4973271;28;20034;-82
2021/10/25 08:21:37;;;;;;;11.20;6.97;;;10.80;88.40;;;;;;4998393;28;20030;-82
2021/10/25 08:24:04;;;;;;;6.88;3.75;;;10.70;88.20;;;;;;5001358;28;20029;-82
2021/10/25 08:26:50;;;;;;;3.45;2.42;;;10.80;88.10;;;;;;5002793;28;20048;-81
2021/10/25 08:29:17;;;;;;;12.55;6.15;;;10.70;88.00;;;;;;5000740;28;20109;-81
2021/10/25 08:31:49;;;;;;;7.40;4.55;;;10.70;88.50;;;;;;5002554;28;20442;-82
2021/10/25 08:42:25;;;;;;;11.18;6.18;;;10.70;89.10;;;;;;4994094;28;20502;-77
2021/10/25 08:45:09;;;;;;;6.07;3.80;;;10.80;89.40;;;;;;4993587;28;20023;-80
2021/10/25 08:47:39;;;;;;;13.07;5.47;;;10.80;89.10;;;;;;5021324;28;20045;-73
2021/10/25 08:50:30;;;;;;;6.65;3.35;;;10.80;89.30;;;;;;5007328;28;20492;-74
2021/10/25 08:52:57;;;;;;;11.90;6.22;;;10.80;89.30;;;;;;4996411;28;20108;-73
2021/10/25 08:55:33;;;;;;;4.82;3.47;;;10.90;89.70;;;;;;4998634;28;20713;-73
2021/10/25 08:57:59;;;;;;;11.75;4.00;;;10.80;89.50;;;;;;4998597;28;20037;-73
2021/10/25 09:00:49;;;;;;;10.27;5.50;;;10.90;89.70;;;;;;5000810;28;20386;-73
2021/10/25 09:03:30;;;;;;;8.43;4.18;;;10.80;89.90;;;;;;4998698;28;20037;-73
2021/10/25 09:06:12;;;;;;;10.80;4.97;;;10.90;89.70;;;;;;5000650;28;20030;-73
2021/10/25 09:08:41;;;;;;;8.38;3.30;;;10.90;90.00;;;;;;5017064;28;20167;-73
2021/10/25 09:11:09;;;;;;;5.40;2.50;;;10.90;90.00;;;;;;5001245;28;20032;-72
2021/10/25 09:13:43;;;;;;;11.60;6.80;;;11.00;90.00;;;;;;5009035;28;20037;-70
2021/10/25 09:16:14;;;;;;;6.75;4.28;;;11.00;90.20;;;;;;5004873;28;20030;-77
2021/10/25 09:18:43;;;;;;;7.18;4.47;;;11.00;90.20;;;;;;5014433;28;20045;-79
2021/10/25 09:21:13;;;;;;;13.40;6.70;;;11.10;90.20;;;;;;5000696;28;20084;-84
2021/10/25 09:23:45;;;;;;;9.48;4.63;;;11.00;90.30;;;;;;4998519;28;20409;-74
2021/10/25 09:26:24;;;;;;;1.17;1.00;;;11.10;90.30;;;;;;5005455;28;20469;-82
2021/10/25 09:28:55;;;;;;;20.40;4.53;;;11.10;90.20;;;;;;4995784;28;20037;-82
2021/10/25 09:31:35;;;;;;;17.73;6.78;;;11.20;90.20;;;;;;5001206;28;20072;-76
2021/10/25 09:34:10;;;;;;;11.57;6.20;;;11.20;90.40;;;;;;5002982;28;20030;-76
2021/10/25 09:37:09;;;;;;;9.85;6.13;;;11.20;90.50;;;;;;4980648;28;20389;-81
2021/10/25 09:39:49;;;;;;;6.05;4.28;;;11.20;90.50;;;;;;5001302;28;20049;-83
2021/10/25 09:45:23;;;;;;;3.50;1.92;;;11.30;90.30;;;;;;4997910;28;20026;-83
2021/10/25 09:51:02;;;;;;;11.07;5.18;;;11.40;90.50;;;;;;5002373;28;20057;-83
2021/10/25 09:53:42;;;;;;;13.95;6.43;;;11.40;90.50;;;;;;5005567;28;20022;-82
2021/10/25 09:56:11;;;;;;;10.05;5.85;;;11.40;90.70;;;;;;5004079;28;20030;-83
2021/10/25 10:01:36;;;;;;;9.48;3.17;;;11.50;90.60;;;;;;5014977;28;20080;-81
2021/10/25 10:04:04;;;;;;;8.82;3.42;;;11.50;90.50;;;;;;5000198;28;20393;-81
2021/10/25 10:06:53;;;;;;;8.60;5.70;;;11.50;90.40;;;;;;5012400;28;20048;-82
2021/10/25 10:09:19;;;;;;;11.43;6.00;;;11.60;90.60;;;;;;4995664;28;20057;-81
2021/10/25 10:11:46;;;;;;;9.27;4.32;;;11.60;90.60;;;;;;5006155;28;20029;-81
2021/10/25 10:14:15;;;;;;;8.63;5.32;;;11.60;90.60;;;;;;4994992;28;20022;-82
2021/10/25 10:16:47;;;;;;;7.35;4.55;;;11.60;90.80;;;;;;4998062;28;20038;-81
2021/10/25 10:19:21;;;;;;;4.90;3.08;;;11.60;90.80;;;;;;5019313;28;20523;-81
2021/10/25 10:22:03;;;;;;;6.70;3.60;;;11.60;90.80;;;;;;4999961;28;20025;-82
2021/10/25 10:24:40;;;;;;;8.20;4.55;;;11.70;90.90;;;;;;4997172;28;20029;-81
2021/10/25 10:27:08;;;;;;;10.98;5.13;;;11.70;91.00;;;;;;5002550;28;20048;-82
2021/10/25 10:29:39;;;;;;;10.82;5.30;;;11.70;91.10;;;;;;4999365;28;20090;-80
2021/10/25 10:32:15;;;;;;;7.47;3.90;;;11.70;91.10;;;;;;5004029;28;20048;-81
2021/10/25 10:34:52;;;;;;;5.25;2.33;;;11.80;91.10;;;;;;5023467;28;20076;-81
2021/10/25 10:38:01;;;;;;;6.75;4.05;;;11.80;91.00;;;;;;5026212;28;20496;-83
2021/10/25 10:40:39;;;;;;;6.10;4.63;;;11.80;91.00;;;;;;5005092;28;20024;-83
2021/10/25 10:43:28;;;;;;;7.40;4.88;;;11.80;91.10;;;;;;5021459;28;20129;-82
2021/10/25 10:46:03;;;;;;;6.93;4.22;;;11.90;91.10;;;;;;5011563;28;20041;-83
2021/10/25 10:48:34;;;;;;;7.13;4.60;;;11.90;91.10;;;;;;5020678;28;20030;-82
2021/10/25 10:51:04;;;;;;;1.70;1.38;;;11.90;91.20;;;;;;5025180;28;20022;-83
2021/10/25 10:53:37;;;;;;;4.85;2.25;;;12.00;91.10;;;;;;5032727;28;20029;-84
2021/10/25 11:01:29;;;;;;;8.23;4.97;;;12.00;91.30;;;;;;5015260;28;20434;-82
2021/10/25 11:04:04;;;;;;;4.28;2.20;;;12.00;91.30;;;;;;5008137;28;20125;-84
2021/10/25 11:06:34;;;;;;;4.43;3.30;;;12.10;91.30;;;;;;5021527;28;20033;-84
2021/10/25 11:09:11;;;;;;;6.10;3.72;;;12.10;91.30;;;;;;5022347;28;20025;-83
2021/10/25 11:11:40;;;;;;;8.05;4.85;;;12.10;91.40;;;;;;5020649;28;20477;-84
2021/10/25 11:14:14;;;;;;;3.08;1.58;;;12.10;91.40;;;;;;5029942;28;20021;-83
2021/10/25 11:19:07;;;;;;;9.10;4.50;;;12.20;91.40;;;;;;5022985;28;20060;-82
2021/10/25 11:21:37;;;;;;;11.02;5.22;;;12.10;91.50;;;;;;5029413;28;20025;-83
2021/10/25 11:24:15;;;;;;;7.93;4.97;;;12.20;91.60;;;;;;5018188;28;20033;-81
2021/10/25 11:26:56;;;;;;;7.68;4.80;;;12.20;91.60;;;;;;5002976;28;20099;-84
2021/10/25 11:29:27;;;;;;;8.90;5.07;;;12.30;91.60;;;;;;5022458;28;20080;-83
2021/10/25 11:32:02;;;;;;;5.55;3.53;;;12.30;91.60;;;;;;5021649;28;20405;-83
2021/10/25 11:34:35;;;;;;;6.15;3.10;;;12.30;91.60;;;;;;5023121;28;20382;-82
2021/10/25 11:37:04;;;;;;;4.40;2.95;;;12.30;91.60;;;;;;5021671;28;20038;-83
2021/10/25 11:42:12;;;;;;;8.88;4.88;;;12.40;91.70;;;;;;5018986;28;20091;-83
2021/10/25 11:44:39;;;;;;;8.73;3.40;;;12.30;91.80;;;;;;5026855;28;20430;-83
2021/10/25 11:47:32;;;;;;;4.40;2.63;;;12.40;91.80;;;;;;5019211;28;20052;-83
2021/10/25 11:50:05;;;;;;;5.57;3.20;;;12.30;91.80;;;;;;5022553;28;20552;-82
2021/10/25 11:52:39;;;;;;;5.68;3.85;;;12.40;91.80;;;;;;5020354;28;20099;-81
2021/10/25 11:55:06;;;;;;;9.65;5.40;;;12.40;91.80;;;;;;5021981;28;20424;-81
2021/10/25 11:57:32;;;;;;;4.82;3.17;;;12.40;91.90;;;;;;5020934;28;20022;-82
2021/10/25 12:00:09;;;;;;;2.10;1.60;;;12.50;91.90;;;;;;5016767;28;20033;-82
2021/10/25 12:02:45;;;;;;;2.05;1.60;;;12.50;91.80;;;;;;5002348;28;20026;-81
2021/10/25 12:05:18;;;;;;;5.85;3.88;;;12.60;91.80;;;;;;5011570;28;20468;-82
2021/10/25 12:07:55;;;;;;;5.70;2.00;;;12.60;92.00;;;;;;5019300;28;20041;-82
2021/10/25 12:10:23;;;;;;;7.55;4.03;;;12.50;91.90;;;;;;5022167;28;20099;-82
2021/10/25 12:12:51;;;;;;;4.75;1.85;;;12.60;91.90;;;;;;5020023;28;20080;-82
2021/10/25 12:15:23;;;;;;;1.73;1.45;;;12.60;91.90;;;;;;5016324;28;20366;-87
2021/10/25 12:17:50;;;;;;;5.70;3.28;;;12.60;91.90;;;;;;5025312;28;20033;-81
2021/10/25 12:20:34;;;;;;;5.40;3.38;;;12.60;92.00;;;;;;5027144;28;20026;-83
2021/10/25 12:23:07;;;;;;;3.38;1.75;;;12.70;92.10;;;;;;5021184;28;20034;-82
2021/10/25 12:25:34;;;;;;;4.20;2.50;;;12.70;92.00;;;;;;5023630;28;20050;-79
2021/10/25 12:28:12;;;;;;;5.50;3.22;;;12.70;92.10;;;;;;5025502;28;20046;-83
2021/10/25 12:30:38;;;;;;;4.45;2.55;;;12.70;92.20;;;;;;5024677;28;20096;-84
2021/10/25 12:33:04;;;;;;;5.35;2.90;;;12.70;92.20;;;;;;5024063;28;20030;-82
2021/10/25 12:35:38;;;;;;;7.40;2.58;;;12.80;92.30;;;;;;5020658;28;20041;-78
2021/10/25 12:38:16;;;;;;;2.72;2.13;;;12.80;92.30;;;;;;5020640;28;20030;-82
2021/10/25 12:41:00;;;;;;;9.98;4.57;;;12.80;92.30;;;;;;5018271;28;20038;-83
2021/10/25 12:43:36;;;;;;;3.20;2.25;;;12.80;92.50;;;;;;5025165;28;20076;-82
2021/10/25 12:46:05;;;;;;;7.28;3.97;;;12.90;92.40;;;;;;5017562;28;20046;-83
2021/10/25 12:48:41;;;;;;;2.78;1.95;;;12.90;92.60;;;;;;5018682;28;20117;-83
2021/10/25 12:51:07;;;;;;;8.68;4.15;;;12.90;92.70;;;;;;5028602;28;20033;-83
2021/10/25 12:53:33;;;;;;;5.22;2.95;;;12.90;92.80;;;;;;5026168;28;20124;-82
2021/10/25 12:56:01;;;;;;;9.43;3.42;;;12.90;92.80;;;;;;5020306;28;20113;-83
2021/10/25 12:58:28;;;;;;;4.25;3.00;;;12.90;92.80;;;;;;5017450;28;20022;-83
2021/10/25 13:00:54;;;;;;;5.18;2.75;;;12.90;92.80;;;;;;5018113;28;20072;-82
2021/10/25 13:03:29;;;;;;;2.08;1.60;;;12.90;92.80;;;;;;5018992;28;20083;-84
2021/10/25 13:06:06;;;;;;;6.13;2.63;;;13.00;92.90;;;;;;5023913;28;20476;-83
2021/10/25 13:08:32;;;;;;;5.15;3.33;;;13.00;93.00;;;;;;5021107;28;20086;-76
2021/10/25 13:10:59;;;;;;;3.45;1.83;;;13.00;93.10;;;;;;5023379;28;20064;-81
2021/10/25 13:13:34;;;;;;;9.15;4.05;;;13.00;93.20;;;;;;5026895;28;20496;-78
2021/10/25 13:16:01;;;;;;;5.32;3.53;;;13.00;93.30;;;;;;5017016;28;20021;-80
2021/10/25 13:18:27;;;;;;;6.63;3.22;;;13.00;93.20;;;;;;5022365;28;20069;-75
2021/10/25 13:20:54;;;;;;;5.30;3.50;;;13.00;93.30;;;;;;5012669;28;20049;-76
2021/10/25 13:23:22;;;;;;;5.57;3.22;;;13.10;93.30;;;;;;5015097;28;20030;-83
2021/10/25 13:25:49;;;;;;;9.57;4.53;;;13.10;93.40;;;;;;5016646;28;20052;-82
2021/10/25 13:28:16;;;;;;;4.63;2.90;;;13.10;93.50;;;;;;5022248;28;20064;-83
2021/10/25 13:30:41;;;;;;;4.63;3.10;;;13.10;93.50;;;;;;5021559;28;20392;-82
2021/10/25 13:33:07;;;;;;;13.25;6.78;;;13.10;93.60;;;;;;5019433;28;20037;-82
2021/10/25 13:35:33;;;;;;;8.35;5.35;;;13.10;93.60;;;;;;5019169;28;20347;-81
2021/10/25 13:37:59;;;;;;;14.18;5.65;;;13.10;93.60;;;;;;5024054;28;20034;-80
2021/10/25 13:40:29;;;;;;;6.28;3.13;;;13.20;93.60;;;;;;5018116;28;20041;-81
2021/10/25 13:42:56;;;;;;;3.88;2.45;;;13.20;93.50;;;;;;5028169;28;20067;-80
2021/10/25 13:45:22;;;;;;;13.18;7.95;;;13.20;93.40;;;;;;5017055;28;20041;-80
2021/10/25 13:47:48;;;;;;;15.45;8.27;;;13.20;93.50;;;;;;5016588;28;20057;-80
2021/10/25 13:50:15;;;;;;;9.80;4.78;;;13.20;93.50;;;;;;5025003;28;20018;-80
2021/10/25 13:52:41;;;;;;;6.90;3.53;;;13.20;93.40;;;;;;5025958;28;20136;-80
2021/10/25 13:55:08;;;;;;;17.55;8.98;;;13.30;93.40;;;;;;5022434;28;20030;-80
2021/10/25 13:57:39;;;;;;;11.32;4.55;;;13.30;93.40;;;;;;5020433;28;20025;-80
2021/10/25 14:00:12;;;;;;;12.88;7.47;;;13.30;93.20;;;;;;5011545;28;20061;-80
2021/10/25 14:02:40;;;;;;;;;;;13.40;93.40;;;;;;5015365;28;20041;-80
2021/10/25 14:05:07;;;;;;;10.27;5.82;;;13.40;93.20;;;;;;5015905;28;20353;-81
2021/10/25 14:07:34;;;;;;;10.75;6.32;;;13.40;93.20;;;;;;5023254;28;20037;-80
2021/10/25 14:10:10;;;;;;;13.80;6.65;;;13.40;93.30;;;;;;5034625;28;20029;-80
2021/10/25 14:12:37;;;;;;;8.65;4.47;;;13.40;93.30;;;;;;5026563;28;20025;-79
2021/10/25 14:17:43;;;;;;;8.88;5.00;;;13.50;93.40;;;;;;5021402;28;20056;-76
2021/10/25 14:20:09;;;;;;;10.38;4.53;;;13.40;93.40;;;;;;5021288;28;20029;-78
2021/10/25 14:22:35;;;;;;;7.97;3.75;;;13.40;93.50;;;;;;5020946;28;20070;-78
2021/10/25 14:25:00;;;;;;;10.98;5.28;;;13.40;93.50;;;;;;5019902;28;20065;-78
2021/10/25 14:27:27;;;;;;;10.93;4.55;;;13.40;93.60;;;;;;5020697;28;20096;-78
2021/10/25 14:29:53;;;;;;;18.58;7.00;;;13.50;93.70;;;;;;5024587;28;20793;-77
2021/10/25 14:32:18;;;;;;;8.48;3.72;;;13.40;94.00;;;;;;5022098;28;20041;-77
2021/10/25 14:34:44;;;;;;;11.15;4.00;;;13.40;93.70;;;;;;5024779;28;20030;-77
2021/10/25 14:37:11;;;;;;;6.80;3.45;;;13.50;93.70;;;;;;5020715;28;20026;-78
2021/10/25 14:39:41;;;;;;;14.15;6.70;;;13.50;93.80;;;;;;5020546;28;20112;-78
2021/10/25 14:42:14;;;;;;;12.88;4.78;;;13.50;93.80;;;;;;5020190;28;20022;-78
2021/10/25 14:55:19;;;;;;;2.72;1.85;;;13.50;94.00;;;;;;5020321;28;20079;-77
2021/10/25 14:57:45;;;;;;;9.40;4.47;;;13.50;93.90;;;;;;5021177;28;20040;-77
2021/10/25 15:00:11;;;;;;;8.98;4.63;;;13.50;93.90;;;;;;5017004;28;20038;-77
2021/10/25 15:02:37;;;;;;;13.75;6.90;;;13.50;93.90;;;;;;5020785;28;20076;-77
2021/10/25 15:05:09;;;;;;;18.65;8.75;;;13.50;93.90;;;;;;5020581;28;20017;-76
2021/10/25 15:07:37;;;;;;;4.57;2.63;;;13.60;93.90;;;;;;5020987;28;20103;-77
2021/10/25 15:10:03;;;;;;;7.45;3.83;;;13.60;93.80;;;;;;5021673;28;20033;-78
2021/10/25 15:12:29;;;;;;;10.48;5.57;;;13.60;93.80;;;;;;5023031;28;20535;-77